Time;durP1;ratioP1;P1;durP2;ratioP2;P2;SDS_P1;SDS_P2;PMS_P1;PMS_P2;Temp;Humidity;BMP_temperature;BMP_pressure;BME280_temperature;BME280_humidity;BME280_pressure;Samples;Min_cycle;Max_cycle;Signal;HPM_P1;HPM_P2
2024/01/30 00:01:57;;;;;;;25.38;14.35;;;9.00;75.50;;;;;;5090536;28;20048;-72
2024/01/30 00:04:22;;;;;;;20.30;12.95;;;9.00;75.50;;;;;;5092409;28;20020;-71
2024/01/30 00:06:48;;;;;;;20.70;14.38;;;9.00;75.50;;;;;;5091959;28;20101;-72
2024/01/30 00:09:15;;;;;;;19.60;12.98;;;9.00;75.50;;;;;;5092325;28;20338;-71
2024/01/30 00:11:41;;;;;;;20.05;13.80;;;9.00;75.60;;;;;;5102049;28;20036;-71
2024/01/30 00:14:06;;;;;;;19.63;13.75;;;9.00;75.60;;;;;;5093192;28;20030;-71
2024/01/30 00:16:32;;;;;;;18.77;13.27;;;8.90;75.50;;;;;;5098499;28;20052;-71
2024/01/30 00:18:58;;;;;;;21.35;13.48;;;8.90;75.50;;;;;;5091831;28;20024;-71
2024/01/30 00:21:24;;;;;;;20.38;13.35;;;8.90;75.50;;;;;;5092609;28;20438;-71
2024/01/30 00:23:50;;;;;;;18.80;13.07;;;8.90;75.80;;;;;;5091561;28;20357;-71
2024/01/30 00:26:16;;;;;;;17.35;12.13;;;8.90;75.50;;;;;;5075005;28;20036;-71
2024/01/30 00:28:42;;;;;;;17.75;12.23;;;8.90;75.50;;;;;;5092703;28;20028;-71
2024/01/30 00:31:12;;;;;;;18.88;12.52;;;8.90;75.40;;;;;;5091610;28;20024;-71
2024/01/30 00:33:41;;;;;;;18.95;12.13;;;8.90;75.40;;;;;;5092520;28;20027;-71
2024/01/30 00:36:08;;;;;;;18.35;12.38;;;8.80;75.40;;;;;;5089920;28;20016;-71
2024/01/30 00:38:34;;;;;;;17.70;11.90;;;8.90;75.40;;;;;;5079311;28;20016;-71
2024/01/30 00:41:01;;;;;;;18.67;12.75;;;8.80;75.30;;;;;;5092572;28;20034;-71
2024/01/30 00:43:27;;;;;;;17.13;12.18;;;8.80;75.30;;;;;;5094734;28;20177;-71
2024/01/30 00:45:54;;;;;;;24.38;12.05;;;8.80;75.30;;;;;;5091905;28;20039;-71
2024/01/30 00:48:20;;;;;;;18.25;11.95;;;8.80;75.30;;;;;;5092439;28;20028;-72
2024/01/30 00:50:46;;;;;;;17.92;11.60;;;8.70;75.20;;;;;;5091898;28;20040;-71
2024/01/30 00:53:11;;;;;;;16.10;10.88;;;8.70;75.20;;;;;;5094450;28;20045;-72
2024/01/30 00:55:37;;;;;;;18.90;11.77;;;8.70;75.20;;;;;;5093708;28;20034;-71
2024/01/30 00:58:03;;;;;;;16.77;11.25;;;8.70;75.10;;;;;;5095372;28;20028;-71
2024/01/30 01:00:29;;;;;;;17.17;11.15;;;8.80;75.20;;;;;;5096731;28;20031;-71
2024/01/30 01:02:59;;;;;;;17.33;11.75;;;8.80;75.10;;;;;;5095722;28;20421;-72
2024/01/30 01:05:25;;;;;;;15.40;10.45;;;8.70;75.00;;;;;;5094600;28;20066;-71
2024/01/30 01:07:51;;;;;;;15.10;10.40;;;8.80;75.10;;;;;;5096539;28;20028;-71
2024/01/30 01:10:17;;;;;;;20.38;11.93;;;8.80;75.10;;;;;;5097259;28;20024;-71
2024/01/30 01:12:44;;;;;;;16.17;10.77;;;8.80;75.10;;;;;;5096608;28;20031;-72
2024/01/30 01:15:10;;;;;;;20.15;11.30;;;8.80;75.10;;;;;;5093769;28;20031;-71
2024/01/30 01:17:40;;;;;;;15.38;10.23;;;8.70;75.00;;;;;;5079278;28;20406;-71
2024/01/30 01:20:06;;;;;;;16.45;11.00;;;8.70;75.00;;;;;;5082682;28;20052;-71
2024/01/30 01:22:33;;;;;;;16.55;10.73;;;8.80;75.10;;;;;;5089635;28;20028;-71
2024/01/30 01:25:00;;;;;;;17.38;10.55;;;8.80;75.10;;;;;;5095362;28;20051;-71
2024/01/30 01:27:26;;;;;;;15.77;10.18;;;8.70;75.10;;;;;;5095854;28;20047;-71
2024/01/30 01:29:52;;;;;;;14.38;9.45;;;8.80;75.10;;;;;;5096678;28;20016;-71
2024/01/30 01:32:18;;;;;;;16.80;9.98;;;8.70;75.00;;;;;;5095091;28;20338;-71
2024/01/30 01:34:44;;;;;;;15.23;9.63;;;8.70;75.00;;;;;;5093936;28;20333;-71
2024/01/30 01:37:09;;;;;;;16.63;10.10;;;8.70;75.00;;;;;;5095648;28;20028;-71
2024/01/30 01:39:35;;;;;;;15.00;10.10;;;8.70;75.00;;;;;;5095424;28;20103;-71
2024/01/30 01:42:01;;;;;;;15.07;10.52;;;8.70;75.00;;;;;;5095332;28;20428;-71
2024/01/30 01:44:27;;;;;;;16.02;9.60;;;8.70;75.00;;;;;;5095158;28;20075;-71
2024/01/30 01:46:54;;;;;;;15.90;10.23;;;8.70;75.00;;;;;;5094568;28;20437;-71
2024/01/30 01:49:21;;;;;;;15.98;10.40;;;8.70;75.00;;;;;;5095044;28;20114;-71
2024/01/30 01:51:48;;;;;;;14.85;9.88;;;8.60;75.00;;;;;;5076873;28;20040;-71
2024/01/30 01:54:15;;;;;;;14.85;10.18;;;8.60;75.70;;;;;;5093179;28;20031;-71
2024/01/30 01:56:43;;;;;;;15.10;10.15;;;8.60;75.10;;;;;;5103182;27;20081;-71
2024/01/30 01:59:09;;;;;;;15.88;9.80;;;8.60;75.10;;;;;;5093900;28;20020;-71
2024/01/30 02:01:40;;;;;;;14.98;9.68;;;8.60;75.10;;;;;;5093813;28;20043;-71
2024/01/30 02:04:07;;;;;;;15.35;9.13;;;8.60;75.20;;;;;;5094175;28;20107;-71
2024/01/30 02:06:37;;;;;;;16.67;10.48;;;8.60;75.20;;;;;;5088917;28;20465;-71
2024/01/30 02:09:04;;;;;;;16.83;10.35;;;8.60;75.20;;;;;;5095314;28;20024;-71
2024/01/30 02:11:31;;;;;;;15.07;9.57;;;8.60;75.30;;;;;;5094601;28;20031;-71
2024/01/30 02:13:57;;;;;;;15.15;9.98;;;8.60;75.30;;;;;;5093903;28;20097;-71
2024/01/30 02:16:23;;;;;;;16.67;10.95;;;8.60;75.30;;;;;;5093247;28;20035;-71
2024/01/30 02:18:49;;;;;;;15.57;10.25;;;8.60;75.30;;;;;;5094522;28;20023;-71
2024/01/30 02:21:16;;;;;;;13.20;8.80;;;8.60;75.30;;;;;;5089139;28;20024;-71
2024/01/30 02:23:43;;;;;;;15.55;10.05;;;8.60;75.40;;;;;;5091339;28;20052;-71
2024/01/30 02:26:09;;;;;;;16.42;10.30;;;8.60;75.40;;;;;;5093022;28;20052;-71
2024/01/30 02:28:35;;;;;;;14.75;9.45;;;8.60;75.40;;;;;;5101553;28;20417;-71
2024/01/30 02:31:00;;;;;;;13.75;9.07;;;8.60;75.40;;;;;;5093770;28;20035;-71
2024/01/30 02:33:26;;;;;;;15.27;10.43;;;8.50;75.40;;;;;;5094050;28;20413;-71
2024/01/30 02:35:52;;;;;;;14.20;9.40;;;8.50;75.40;;;;;;5094264;28;20058;-71
2024/01/30 02:38:18;;;;;;;14.75;9.57;;;8.50;75.40;;;;;;5094212;28;20111;-71
2024/01/30 02:40:44;;;;;;;15.05;9.13;;;8.50;75.40;;;;;;5092668;28;20027;-71
2024/01/30 02:43:09;;;;;;;16.38;10.00;;;8.50;75.30;;;;;;5103179;28;20021;-71
2024/01/30 02:45:35;;;;;;;13.95;8.63;;;8.50;75.30;;;;;;5093029;28;20039;-71
2024/01/30 02:48:01;;;;;;;13.88;9.20;;;8.50;75.30;;;;;;5094788;28;20176;-71
2024/01/30 02:50:26;;;;;;;14.40;9.55;;;8.50;75.30;;;;;;5095321;28;20121;-71
2024/01/30 02:52:52;;;;;;;12.75;8.68;;;8.50;75.30;;;;;;5093602;28;20044;-71
2024/01/30 02:55:18;;;;;;;13.35;8.63;;;8.50;75.40;;;;;;5092598;28;20500;-71
2024/01/30 02:57:44;;;;;;;13.70;8.95;;;8.40;75.30;;;;;;5092533;28;20107;-71
2024/01/30 03:00:10;;;;;;;14.43;8.90;;;8.40;75.30;;;;;;5094009;28;20028;-71
2024/01/30 03:02:36;;;;;;;14.20;9.30;;;8.40;75.30;;;;;;5090616;28;20024;-71
2024/01/30 03:05:03;;;;;;;13.50;8.95;;;8.40;75.30;;;;;;5093711;28;20039;-71
2024/01/30 03:07:29;;;;;;;14.95;9.75;;;8.40;75.30;;;;;;5092806;28;20040;-71
2024/01/30 03:09:55;;;;;;;13.52;9.15;;;8.40;75.30;;;;;;5092916;28;20345;-71
2024/01/30 03:12:22;;;;;;;13.93;9.20;;;8.40;75.30;;;;;;5092817;28;20032;-71
2024/01/30 03:14:49;;;;;;;14.23;8.95;;;8.40;75.20;;;;;;5092966;28;20475;-71
2024/01/30 03:17:15;;;;;;;13.07;8.93;;;8.40;75.20;;;;;;5092816;28;20111;-71
2024/01/30 03:19:41;;;;;;;12.93;8.27;;;8.40;75.20;;;;;;5091554;28;20123;-71
2024/01/30 03:22:06;;;;;;;12.80;8.32;;;8.50;75.20;;;;;;5092038;28;20020;-71
2024/01/30 03:24:32;;;;;;;13.00;8.80;;;8.40;75.20;;;;;;5091677;28;20463;-71
2024/01/30 03:26:58;;;;;;;13.55;8.57;;;8.40;75.20;;;;;;5090950;28;20380;-71
2024/01/30 03:29:24;;;;;;;15.10;9.13;;;8.40;75.20;;;;;;5075166;28;20039;-71
2024/01/30 03:31:49;;;;;;;12.18;8.15;;;8.40;75.20;;;;;;5092719;28;20035;-71
2024/01/30 03:34:15;;;;;;;12.80;8.45;;;8.40;75.10;;;;;;5091255;28;20114;-71
2024/01/30 03:36:41;;;;;;;12.98;7.93;;;8.40;75.10;;;;;;5092703;28;20032;-71
2024/01/30 03:39:06;;;;;;;12.68;7.60;;;8.40;75.10;;;;;;5091027;28;20030;-71
2024/01/30 03:41:32;;;;;;;12.93;8.48;;;8.40;75.20;;;;;;5092764;28;20396;-71
2024/01/30 03:43:58;;;;;;;11.77;7.85;;;8.40;75.20;;;;;;5092616;28;20048;-71
2024/01/30 03:46:24;;;;;;;19.88;9.98;;;8.40;75.10;;;;;;5092617;28;20062;-71
2024/01/30 03:48:50;;;;;;;12.40;8.23;;;8.40;75.20;;;;;;5091304;28;20024;-71
2024/01/30 03:51:16;;;;;;;12.93;8.65;;;8.40;75.80;;;;;;5092774;28;20480;-71
2024/01/30 03:53:46;;;;;;;13.13;8.25;;;8.50;75.20;;;;;;5093444;28;20425;-71
2024/01/30 03:56:13;;;;;;;11.93;8.10;;;8.50;75.30;;;;;;5093428;28;20060;-71
2024/01/30 03:58:39;;;;;;;11.50;8.18;;;8.40;75.20;;;;;;5090766;28;20024;-71
2024/01/30 04:01:05;;;;;;;14.20;8.65;;;8.50;75.30;;;;;;5092566;28;20020;-71
2024/01/30 04:03:30;;;;;;;11.68;7.70;;;8.50;75.30;;;;;;5093286;28;20024;-71
2024/01/30 04:05:56;;;;;;;13.38;8.95;;;8.50;76.00;;;;;;5091840;28;20032;-71
2024/01/30 04:08:22;;;;;;;12.55;7.97;;;8.40;75.20;;;;;;5092680;28;20032;-71
2024/01/30 04:10:48;;;;;;;15.52;8.98;;;8.50;75.30;;;;;;5093250;28;20111;-71
2024/01/30 04:13:14;;;;;;;12.32;7.82;;;8.40;75.30;;;;;;5092705;28;20024;-71
2024/01/30 04:15:39;;;;;;;12.57;7.90;;;8.40;75.30;;;;;;5075145;28;20031;-71
2024/01/30 04:18:05;;;;;;;14.02;8.07;;;8.40;75.30;;;;;;5101460;28;20035;-71
2024/01/30 04:20:31;;;;;;;11.43;7.85;;;8.40;75.40;;;;;;5092941;28;20052;-71
2024/01/30 04:22:57;;;;;;;13.25;7.90;;;8.40;75.50;;;;;;5091754;28;20038;-71
2024/01/30 04:25:22;;;;;;;11.73;7.90;;;8.40;75.50;;;;;;5091417;28;20082;-71
2024/01/30 04:27:49;;;;;;;13.32;8.13;;;8.40;75.50;;;;;;5092849;28;20027;-71
2024/01/30 04:30:15;;;;;;;13.23;8.55;;;8.40;75.50;;;;;;5091113;28;20047;-71
2024/01/30 04:32:41;;;;;;;13.90;8.88;;;8.40;75.50;;;;;;5094718;28;20023;-71
2024/01/30 04:35:07;;;;;;;13.88;8.75;;;8.40;75.50;;;;;;5095091;28;20039;-71
2024/01/30 04:37:32;;;;;;;13.70;8.48;;;8.40;75.50;;;;;;5093024;28;20020;-71
2024/01/30 04:39:58;;;;;;;13.30;8.23;;;8.40;75.50;;;;;;5095864;28;20020;-71
2024/01/30 04:42:24;;;;;;;12.70;7.95;;;8.50;75.60;;;;;;5095553;28;20118;-71
2024/01/30 04:44:50;;;;;;;14.00;8.45;;;8.50;75.60;;;;;;5095926;28;20516;-71
2024/01/30 04:47:16;;;;;;;15.20;8.30;;;8.50;75.60;;;;;;5092540;28;20543;-71
2024/01/30 04:49:42;;;;;;;15.38;8.13;;;8.50;75.70;;;;;;5082494;28;20033;-71
2024/01/30 04:52:08;;;;;;;11.35;7.35;;;8.50;75.70;;;;;;5089610;28;20048;-71
2024/01/30 04:54:35;;;;;;;11.88;8.00;;;8.50;75.70;;;;;;5087298;28;20021;-71
2024/01/30 04:57:01;;;;;;;12.00;7.90;;;8.50;75.70;;;;;;5088928;28;20038;-71
2024/01/30 04:59:27;;;;;;;13.35;8.38;;;8.50;75.80;;;;;;5089654;28;20024;-71
2024/01/30 05:01:53;;;;;;;11.40;7.65;;;8.50;75.80;;;;;;5090656;28;20047;-71
2024/01/30 05:04:19;;;;;;;12.63;8.05;;;8.50;75.80;;;;;;5089790;28;20461;-71
2024/01/30 05:06:46;;;;;;;14.25;8.68;;;8.50;75.90;;;;;;5090923;28;20501;-71
2024/01/30 05:09:12;;;;;;;15.02;9.05;;;8.50;76.00;;;;;;5084558;28;20051;-71
2024/01/30 05:11:38;;;;;;;12.20;8.02;;;8.50;76.10;;;;;;5088440;28;20513;-71
2024/01/30 05:14:05;;;;;;;14.35;8.38;;;8.40;76.10;;;;;;5089655;28;20056;-71
2024/01/30 05:16:31;;;;;;;12.23;8.07;;;8.50;76.20;;;;;;5096219;28;20032;-71
2024/01/30 05:18:57;;;;;;;13.93;8.55;;;8.50;76.20;;;;;;5089333;28;20024;-71
2024/01/30 05:21:23;;;;;;;12.10;7.82;;;8.50;76.30;;;;;;5092097;28;20052;-71
2024/01/30 05:23:49;;;;;;;12.90;8.32;;;8.50;76.20;;;;;;5088664;28;20074;-71
2024/01/30 05:26:14;;;;;;;12.20;7.85;;;8.50;76.20;;;;;;5087283;28;20032;-71
2024/01/30 05:28:40;;;;;;;13.48;8.38;;;8.50;76.30;;;;;;5086135;28;20031;-71
2024/01/30 05:31:06;;;;;;;12.20;7.90;;;8.50;76.40;;;;;;5088452;28;20349;-71
2024/01/30 05:33:32;;;;;;;12.15;7.65;;;8.50;76.40;;;;;;5090720;28;20036;-71
2024/01/30 05:35:57;;;;;;;12.13;8.35;;;8.50;76.50;;;;;;5087535;28;20110;-71
2024/01/30 05:38:23;;;;;;;11.75;8.07;;;8.50;76.50;;;;;;5088337;28;20463;-71
2024/01/30 05:40:49;;;;;;;13.18;8.20;;;8.60;76.60;;;;;;5090523;28;20165;-71
2024/01/30 05:43:15;;;;;;;12.05;7.60;;;8.50;76.50;;;;;;5088863;28;20111;-71
2024/01/30 05:45:41;;;;;;;13.20;8.63;;;8.60;76.60;;;;;;5091136;28;20309;-71
2024/01/30 05:48:06;;;;;;;12.68;8.48;;;8.60;76.70;;;;;;5090202;28;20366;-71
2024/01/30 05:50:32;;;;;;;14.18;7.75;;;8.60;76.70;;;;;;5085462;28;20027;-71
2024/01/30 05:52:58;;;;;;;12.27;7.78;;;8.60;76.70;;;;;;5082815;28;20059;-71
2024/01/30 05:55:23;;;;;;;12.25;7.80;;;8.60;76.80;;;;;;5089022;28;20060;-71
2024/01/30 05:57:50;;;;;;;13.90;8.48;;;8.60;76.80;;;;;;5087606;28;20028;-71
2024/01/30 06:00:16;;;;;;;15.48;8.00;;;8.60;76.80;;;;;;5093486;28;20024;-71
2024/01/30 06:02:42;;;;;;;11.80;7.93;;;8.60;76.90;;;;;;5086250;28;20043;-71
2024/01/30 06:05:08;;;;;;;12.18;7.80;;;8.70;76.90;;;;;;5084311;28;20457;-71
2024/01/30 06:07:34;;;;;;;12.07;7.82;;;8.70;76.90;;;;;;5086791;28;20044;-70
2024/01/30 06:10:01;;;;;;;12.52;8.05;;;8.70;76.90;;;;;;5086705;28;20088;-71
2024/01/30 06:12:28;;;;;;;12.63;8.07;;;8.70;77.00;;;;;;5084884;28;20085;-70
2024/01/30 06:14:56;;;;;;;12.45;8.05;;;8.70;77.10;;;;;;5090031;28;20020;-70
2024/01/30 06:17:22;;;;;;;12.05;7.75;;;8.70;77.10;;;;;;5093513;28;20437;-70
2024/01/30 06:19:48;;;;;;;10.82;7.55;;;8.70;77.10;;;;;;5094846;28;20110;-70
2024/01/30 06:22:14;;;;;;;12.80;8.23;;;8.70;77.10;;;;;;5093829;28;20047;-70
2024/01/30 06:24:40;;;;;;;12.48;8.00;;;8.70;77.20;;;;;;5092584;28;20031;-70
2024/01/30 06:27:05;;;;;;;14.90;9.07;;;8.70;77.20;;;;;;5093443;28;20413;-70
2024/01/30 06:29:31;;;;;;;12.27;7.97;;;8.70;77.20;;;;;;5093834;28;20028;-70
2024/01/30 06:31:57;;;;;;;14.35;7.75;;;8.70;77.20;;;;;;5089893;28;20119;-70
2024/01/30 06:34:23;;;;;;;12.57;8.27;;;8.70;77.30;;;;;;5095354;28;20020;-70
2024/01/30 06:36:49;;;;;;;12.60;7.82;;;8.70;77.30;;;;;;5101975;28;21779;-70
2024/01/30 06:39:15;;;;;;;12.77;7.90;;;8.70;77.30;;;;;;5093951;28;20102;-70
2024/01/30 06:41:41;;;;;;;12.32;7.50;;;8.70;77.30;;;;;;5094181;28;20032;-70
2024/01/30 06:44:08;;;;;;;12.75;7.82;;;8.80;77.40;;;;;;5094177;28;20111;-70
2024/01/30 06:46:34;;;;;;;13.70;8.13;;;8.80;77.40;;;;;;5075995;28;20032;-70
2024/01/30 06:48:59;;;;;;;13.20;8.55;;;8.80;77.30;;;;;;5093561;28;20028;-70
2024/01/30 06:51:26;;;;;;;12.05;7.88;;;8.80;77.30;;;;;;5092689;28;20115;-70
2024/01/30 06:53:51;;;;;;;12.43;8.30;;;8.90;77.40;;;;;;5075789;28;20081;-70
2024/01/30 06:56:20;;;;;;;14.55;9.05;;;8.90;77.40;;;;;;5093487;28;20024;-71
2024/01/30 06:58:50;;;;;;;11.82;8.02;;;8.90;77.40;;;;;;5094190;28;20103;-70
2024/01/30 07:01:16;;;;;;;13.55;7.80;;;8.90;77.50;;;;;;5093794;28;20020;-71
2024/01/30 07:03:42;;;;;;;13.60;8.45;;;8.90;77.50;;;;;;5094007;28;20070;-71
2024/01/30 07:06:10;;;;;;;12.27;7.95;;;8.90;77.60;;;;;;5092320;28;20024;-71
2024/01/30 07:08:37;;;;;;;13.93;8.18;;;9.00;77.70;;;;;;5091624;28;20092;-71
2024/01/30 07:11:03;;;;;;;12.70;8.23;;;9.00;77.70;;;;;;5093290;28;20516;-70
2024/01/30 07:13:28;;;;;;;11.90;7.38;;;9.10;77.80;;;;;;5093507;28;20119;-70
2024/01/30 07:15:54;;;;;;;11.10;6.90;;;9.10;77.70;;;;;;5090056;28;20369;-70
2024/01/30 07:18:20;;;;;;;11.95;7.40;;;9.20;77.70;;;;;;5092194;28;20063;-69
2024/01/30 07:20:47;;;;;;;10.32;6.80;;;9.20;77.70;;;;;;5092094;28;20020;-69
2024/01/30 07:23:17;;;;;;;12.02;6.45;;;9.30;77.70;;;;;;5093760;28;20035;-69
2024/01/30 07:25:48;;;;;;;11.27;6.35;;;9.40;77.70;;;;;;5093933;27;20115;-69
2024/01/30 07:28:16;;;;;;;11.45;6.68;;;9.40;77.70;;;;;;5088032;28;20035;-70
2024/01/30 07:30:42;;;;;;;11.90;7.05;;;9.50;77.70;;;;;;5093859;28;20497;-69
2024/01/30 07:33:08;;;;;;;10.80;7.03;;;9.50;77.60;;;;;;5095607;28;20040;-69
2024/01/30 07:35:35;;;;;;;13.60;7.28;;;9.50;77.60;;;;;;5093010;28;20145;-69
2024/01/30 07:38:01;;;;;;;10.23;6.50;;;9.50;77.60;;;;;;5093815;28;20045;-69
2024/01/30 07:40:27;;;;;;;9.80;6.22;;;9.50;77.70;;;;;;5093792;28;20024;-69
2024/01/30 07:42:54;;;;;;;12.43;6.53;;;9.50;77.80;;;;;;5094540;28;20111;-69
2024/01/30 07:45:24;;;;;;;12.88;7.05;;;9.60;77.90;;;;;;5093927;28;20448;-70
2024/01/30 07:47:50;;;;;;;9.43;5.97;;;9.60;77.90;;;;;;5094577;28;20099;-69
2024/01/30 07:50:16;;;;;;;10.65;6.10;;;9.70;78.00;;;;;;5093729;28;20028;-69
2024/01/30 07:52:43;;;;;;;10.45;6.53;;;9.70;77.90;;;;;;5094230;28;20043;-69
2024/01/30 07:55:09;;;;;;;11.32;6.18;;;9.80;78.00;;;;;;5094005;28;20040;-68
2024/01/30 07:57:34;;;;;;;9.90;6.05;;;9.80;78.00;;;;;;5094801;28;20032;-70
2024/01/30 08:00:05;;;;;;;10.52;6.32;;;9.90;78.10;;;;;;5094655;28;20500;-69
2024/01/30 08:02:32;;;;;;;12.35;6.55;;;9.90;78.20;;;;;;5093627;28;20068;-69
2024/01/30 08:04:58;;;;;;;11.15;6.47;;;9.90;78.20;;;;;;5110674;28;20055;-69
2024/01/30 08:07:25;;;;;;;10.82;6.25;;;9.90;78.20;;;;;;5095378;28;20465;-69
2024/01/30 08:09:51;;;;;;;8.93;5.63;;;10.00;78.20;;;;;;5098485;28;20089;-69
2024/01/30 08:12:17;;;;;;;9.93;6.30;;;10.00;78.20;;;;;;5098509;28;20032;-69
2024/01/30 08:14:42;;;;;;;9.38;5.63;;;10.10;78.20;;;;;;5098201;28;20035;-70
2024/01/30 08:17:08;;;;;;;11.43;6.43;;;10.10;78.20;;;;;;5098483;28;20026;-69
2024/01/30 08:19:34;;;;;;;11.23;6.47;;;10.10;78.20;;;;;;5097761;28;20338;-69
2024/01/30 08:21:59;;;;;;;10.52;6.10;;;10.20;78.20;;;;;;5097691;28;20035;-69
2024/01/30 08:24:25;;;;;;;12.45;6.85;;;10.20;78.20;;;;;;5096859;28;20052;-70
2024/01/30 08:26:51;;;;;;;10.13;6.10;;;10.30;78.30;;;;;;5097956;28;20361;-69
2024/01/30 08:29:16;;;;;;;11.27;6.32;;;10.30;78.30;;;;;;5105494;28;20147;-69
2024/01/30 08:31:42;;;;;;;10.45;5.95;;;10.30;78.40;;;;;;5096270;28;20526;-70
2024/01/30 08:34:08;;;;;;;11.77;6.68;;;10.30;78.40;;;;;;5097164;28;20052;-70
2024/01/30 08:36:34;;;;;;;10.70;6.43;;;10.30;78.80;;;;;;5097311;28;20039;-71
2024/01/30 08:38:59;;;;;;;9.75;6.00;;;10.40;78.50;;;;;;5096661;28;20073;-71
2024/01/30 08:41:25;;;;;;;10.93;6.18;;;10.40;78.50;;;;;;5097808;28;20090;-70
2024/01/30 08:43:52;;;;;;;11.00;6.13;;;10.40;78.40;;;;;;5095442;28;20032;-70
2024/01/30 08:46:18;;;;;;;10.98;6.28;;;10.50;78.50;;;;;;5097008;28;20016;-71
2024/01/30 08:48:44;;;;;;;10.52;6.18;;;10.50;78.40;;;;;;5096767;28;20024;-71
2024/01/30 08:51:11;;;;;;;10.85;6.22;;;10.50;78.40;;;;;;5095727;28;20119;-71
2024/01/30 08:53:37;;;;;;;11.98;7.10;;;10.60;78.50;;;;;;5096206;28;20024;-71
2024/01/30 08:56:03;;;;;;;11.15;6.18;;;10.60;78.50;;;;;;5096685;28;20448;-71
2024/01/30 08:58:29;;;;;;;12.35;6.53;;;10.60;78.50;;;;;;5095496;28;20058;-71
2024/01/30 09:00:55;;;;;;;11.23;5.68;;;10.60;78.50;;;;;;5096477;28;20067;-72
2024/01/30 09:03:21;;;;;;;10.30;5.60;;;10.70;78.50;;;;;;5096505;28;20401;-70
2024/01/30 09:05:46;;;;;;;13.45;6.65;;;10.70;78.50;;;;;;5095264;28;20350;-71
2024/01/30 09:08:12;;;;;;;10.55;6.47;;;10.70;78.40;;;;;;5096385;28;20028;-72
2024/01/30 09:10:38;;;;;;;11.85;6.07;;;10.70;78.40;;;;;;5096326;28;20028;-71
2024/01/30 09:13:04;;;;;;;11.20;5.80;;;10.70;78.40;;;;;;5096208;28;20020;-71
2024/01/30 09:15:29;;;;;;;10.50;5.75;;;10.80;78.50;;;;;;5096319;28;20111;-71
2024/01/30 09:17:55;;;;;;;13.10;6.20;;;10.80;78.50;;;;;;5104436;27;20025;-71
2024/01/30 09:20:22;;;;;;;10.52;6.18;;;10.80;78.40;;;;;;5095084;28;20356;-73
2024/01/30 09:22:49;;;;;;;9.60;6.03;;;10.90;78.50;;;;;;5096139;28;20028;-72
2024/01/30 09:25:15;;;;;;;13.05;7.05;;;10.90;78.50;;;;;;5094321;28;20036;-68
2024/01/30 09:27:40;;;;;;;11.88;6.60;;;10.90;78.50;;;;;;5096689;28;20035;-68
2024/01/30 09:30:07;;;;;;;11.88;6.68;;;10.90;78.50;;;;;;5095216;28;20028;-68
2024/01/30 09:32:33;;;;;;;10.77;6.97;;;10.90;78.50;;;;;;5089840;28;20047;-68
2024/01/30 09:34:58;;;;;;;11.48;6.85;;;10.90;78.50;;;;;;5077052;28;20452;-68
2024/01/30 09:37:25;;;;;;;13.48;7.13;;;11.00;78.60;;;;;;5094249;28;20020;-68
2024/01/30 09:39:50;;;;;;;10.55;6.57;;;11.00;78.60;;;;;;5095519;28;20036;-68
2024/01/30 09:42:34;;;;;;;11.13;5.85;;;11.00;78.60;;;;;;5095488;28;20397;-68
2024/01/30 09:45:00;;;;;;;10.75;6.78;;;11.00;78.60;;;;;;5095481;28;20478;-67
2024/01/30 09:47:26;;;;;;;9.52;5.75;;;11.10;78.60;;;;;;5094258;28;20028;-68
2024/01/30 09:49:52;;;;;;;12.38;6.82;;;11.10;78.60;;;;;;5093830;28;20120;-68
2024/01/30 09:52:18;;;;;;;13.32;6.72;;;11.20;78.50;;;;;;5094850;28;20036;-67
2024/01/30 09:54:45;;;;;;;9.65;6.25;;;11.20;78.40;;;;;;5095144;28;20020;-68
2024/01/30 09:57:12;;;;;;;12.32;6.35;;;11.20;78.40;;;;;;5095028;28;20023;-68
2024/01/30 09:59:37;;;;;;;11.50;6.90;;;11.20;78.40;;;;;;5094877;28;20035;-68
2024/01/30 10:02:04;;;;;;;11.90;6.75;;;11.20;78.40;;;;;;5094002;28;20024;-67
2024/01/30 10:04:30;;;;;;;11.73;6.97;;;11.30;78.50;;;;;;5094950;28;20038;-68
2024/01/30 10:06:58;;;;;;;13.25;6.40;;;11.30;78.50;;;;;;5106311;27;20035;-67
2024/01/30 10:09:25;;;;;;;11.45;7.10;;;11.20;78.50;;;;;;5090653;28;20028;-68
2024/01/30 10:11:51;;;;;;;12.68;7.03;;;11.30;78.60;;;;;;5094370;28;20020;-68
2024/01/30 10:14:17;;;;;;;11.55;6.50;;;11.30;78.60;;;;;;5094839;28;20019;-66
2024/01/30 10:16:45;;;;;;;12.90;7.05;;;11.30;78.60;;;;;;5094645;28;20020;-67
2024/01/30 10:19:11;;;;;;;12.40;6.35;;;11.40;78.60;;;;;;5095210;28;20028;-67
2024/01/30 10:21:36;;;;;;;11.23;6.45;;;11.40;78.50;;;;;;5094573;28;20020;-67
2024/01/30 10:24:02;;;;;;;12.65;6.53;;;11.50;78.50;;;;;;5091961;28;20126;-68
2024/01/30 10:26:29;;;;;;;11.82;6.72;;;11.50;78.40;;;;;;5093368;28;20381;-67
2024/01/30 10:28:55;;;;;;;12.07;7.22;;;11.60;78.40;;;;;;5100250;27;20039;-66
2024/01/30 10:31:21;;;;;;;15.13;8.05;;;11.60;78.40;;;;;;5093377;28;20024;-67
2024/01/30 10:33:46;;;;;;;11.90;6.35;;;11.60;78.50;;;;;;5094139;28;20353;-67
2024/01/30 10:36:15;;;;;;;14.48;6.57;;;11.60;78.50;;;;;;5094464;28;20368;-67
2024/01/30 10:38:42;;;;;;;10.32;6.65;;;11.60;78.50;;;;;;5092704;28;20115;-66
2024/01/30 10:41:13;;;;;;;11.18;7.05;;;11.60;78.50;;;;;;5091246;28;20093;-67
2024/01/30 10:43:42;;;;;;;11.13;6.88;;;11.60;78.60;;;;;;5094090;28;20075;-67
2024/01/30 10:46:21;;;;;;;11.48;7.07;;;11.60;78.60;;;;;;5099934;27;20028;-67
2024/01/30 10:48:56;;;;;;;12.82;6.85;;;11.60;78.60;;;;;;5093336;28;20097;-67
2024/01/30 10:51:23;;;;;;;12.32;6.90;;;11.60;78.60;;;;;;5090863;28;20032;-67
2024/01/30 10:53:50;;;;;;;11.70;6.60;;;11.60;78.60;;;;;;5091006;28;20092;-67
2024/01/30 10:56:17;;;;;;;12.48;6.85;;;11.70;78.70;;;;;;5092654;28;20023;-68
2024/01/30 10:58:43;;;;;;;13.00;7.88;;;11.70;78.70;;;;;;5093490;28;20058;-67
2024/01/30 11:01:09;;;;;;;11.55;7.18;;;11.70;78.60;;;;;;5093952;28;20066;-67
2024/01/30 11:03:36;;;;;;;13.68;7.80;;;11.70;78.60;;;;;;5092453;28;20019;-68
2024/01/30 11:06:03;;;;;;;11.30;7.25;;;11.80;78.70;;;;;;5092011;28;20154;-69
2024/01/30 11:08:31;;;;;;;13.30;7.55;;;11.80;78.60;;;;;;5092505;28;20055;-68
2024/01/30 11:10:58;;;;;;;11.63;7.28;;;11.80;78.60;;;;;;5093681;28;20394;-68
2024/01/30 11:13:31;;;;;;;12.93;7.22;;;11.80;78.70;;;;;;5092649;28;20020;-68
2024/01/30 11:16:07;;;;;;;10.20;6.28;;;11.80;78.70;;;;;;5093313;28;20047;-68
2024/01/30 11:18:35;;;;;;;12.90;7.78;;;11.90;78.70;;;;;;5098421;28;20149;-69
2024/01/30 11:21:02;;;;;;;12.85;7.10;;;11.90;78.70;;;;;;5091838;28;20073;-68
2024/01/30 11:23:28;;;;;;;12.23;7.30;;;12.00;78.70;;;;;;5092091;28;20512;-67
2024/01/30 11:25:55;;;;;;;11.52;6.82;;;12.00;78.60;;;;;;5093388;28;20024;-68
2024/01/30 11:28:22;;;;;;;12.65;7.13;;;12.00;78.60;;;;;;5097267;28;20092;-68
2024/01/30 11:30:50;;;;;;;12.27;7.68;;;12.10;78.50;;;;;;5093408;28;20024;-69
2024/01/30 11:33:30;;;;;;;12.57;6.80;;;12.20;78.40;;;;;;5092449;28;20028;-68
2024/01/30 11:36:01;;;;;;;12.23;7.07;;;12.20;78.20;;;;;;5083357;28;20020;-68
2024/01/30 11:38:27;;;;;;;10.25;6.35;;;12.30;78.20;;;;;;5093396;28;20420;-67
2024/01/30 11:40:56;;;;;;;14.55;7.40;;;12.30;78.20;;;;;;5089692;28;20051;-68
2024/01/30 11:43:23;;;;;;;10.45;6.45;;;12.30;78.20;;;;;;5093486;28;20035;-67
2024/01/30 11:45:49;;;;;;;11.20;6.35;;;12.30;78.20;;;;;;5093611;28;20054;-68
2024/01/30 11:48:15;;;;;;;12.98;7.63;;;12.30;78.20;;;;;;5094403;28;20020;-68
2024/01/30 11:50:41;;;;;;;12.35;6.22;;;12.30;78.20;;;;;;5093980;28;20110;-68
2024/01/30 11:53:07;;;;;;;11.98;6.32;;;12.30;78.10;;;;;;5110304;28;20032;-69
2024/01/30 11:55:35;;;;;;;12.27;6.75;;;12.30;78.10;;;;;;5092959;28;20012;-69
2024/01/30 11:58:01;;;;;;;11.52;7.07;;;12.40;78.10;;;;;;5090783;28;20346;-69
2024/01/30 12:00:27;;;;;;;13.77;7.30;;;12.40;77.90;;;;;;5091189;28;20077;-68
2024/01/30 12:02:58;;;;;;;12.77;6.80;;;12.50;77.80;;;;;;5092224;28;20106;-70
2024/01/30 12:05:24;;;;;;;12.20;7.22;;;12.50;77.60;;;;;;5088136;28;20073;-70
2024/01/30 12:07:50;;;;;;;12.52;7.03;;;12.60;77.50;;;;;;5092243;28;20075;-70
2024/01/30 12:10:17;;;;;;;13.45;7.65;;;12.60;77.40;;;;;;5092887;28;20052;-68
2024/01/30 12:12:46;;;;;;;14.25;6.82;;;12.60;77.40;;;;;;5092296;28;20114;-68
2024/01/30 12:15:13;;;;;;;12.05;7.00;;;12.60;77.30;;;;;;5093011;28;20024;-68
2024/01/30 12:17:39;;;;;;;12.68;7.00;;;12.60;77.30;;;;;;5092434;28;20032;-67
2024/01/30 12:20:10;;;;;;;13.27;7.00;;;12.60;77.30;;;;;;5093717;28;20486;-68
2024/01/30 12:22:38;;;;;;;12.82;6.95;;;12.60;77.20;;;;;;5092661;28;20036;-68
2024/01/30 12:25:11;;;;;;;15.07;7.75;;;12.60;77.20;;;;;;5093598;28;20043;-68
2024/01/30 12:27:38;;;;;;;14.52;7.45;;;12.60;77.20;;;;;;5093881;28;20371;-68
2024/01/30 12:30:12;;;;;;;12.57;7.57;;;12.60;77.10;;;;;;5092257;28;20114;-68
2024/01/30 12:32:44;;;;;;;11.68;6.65;;;12.60;77.00;;;;;;5102485;28;20025;-68
2024/01/30 12:35:18;;;;;;;11.40;6.53;;;12.60;77.00;;;;;;5088976;28;20021;-68
2024/01/30 12:37:45;;;;;;;12.98;7.28;;;12.60;76.90;;;;;;5089496;28;20025;-68
2024/01/30 12:40:14;;;;;;;12.68;6.90;;;12.70;76.80;;;;;;5093565;28;20103;-68